createdAt,value
2022-08-26T00:02:13.147Z,24.10
2022-08-26T00:05:17.476Z,24.00
2022-08-26T00:08:21.129Z,24.00
2022-08-26T00:11:26.290Z,23.90
2022-08-26T00:14:30.941Z,23.90
2022-08-26T00:17:33.920Z,23.90
2022-08-26T00:20:36.312Z,23.90
2022-08-26T00:23:38.233Z,23.80
2022-08-26T00:26:41.675Z,23.90
2022-08-26T00:29:44.901Z,23.80
2022-08-26T00:32:46.844Z,23.80
2022-08-26T00:35:50.398Z,23.70
2022-08-26T00:38:53.596Z,23.70
2022-08-26T00:41:55.361Z,23.70
2022-08-26T00:44:57.631Z,23.60
2022-08-26T00:48:03.811Z,23.60
2022-08-26T00:51:23.135Z,23.60
2022-08-26T00:54:32.348Z,23.60
2022-08-26T00:57:35.955Z,23.60
2022-08-26T01:00:37.966Z,23.60
2022-08-26T01:03:41.838Z,23.60
2022-08-26T01:06:44.378Z,23.50
2022-08-26T01:09:46.687Z,23.40
2022-08-26T01:12:53.364Z,23.40
2022-08-26T01:16:00.983Z,23.40
2022-08-26T01:19:16.261Z,23.30
2022-08-26T01:22:28.737Z,23.30
2022-08-26T01:25:33.517Z,23.30
2022-08-26T01:28:38.998Z,23.40
2022-08-26T01:31:47.331Z,23.40
2022-08-26T01:34:49.569Z,23.40
2022-08-26T01:37:54.888Z,23.50
2022-08-26T01:40:56.884Z,23.30
2022-08-26T01:44:01.261Z,23.40
2022-08-26T01:47:05.173Z,23.40
2022-08-26T01:50:15.749Z,23.30
2022-08-26T01:53:30.104Z,23.20
2022-08-26T01:56:33.278Z,23.20
2022-08-26T01:59:38.460Z,23.20
2022-08-26T02:02:43.721Z,23.10
2022-08-26T02:05:58.020Z,23.20
2022-08-26T02:09:02.709Z,23.10
2022-08-26T02:12:06.170Z,23.10
2022-08-26T02:15:11.196Z,23.20
2022-08-26T02:18:14.034Z,23.10
2022-08-26T02:21:17.059Z,23.10
2022-08-26T02:24:46.122Z,23.00
2022-08-26T02:27:48.485Z,23.10
2022-08-26T02:30:50.401Z,23.10
2022-08-26T02:33:52.842Z,23.00
2022-08-26T02:36:57.152Z,22.90
2022-08-26T02:39:59.188Z,22.90
2022-08-26T02:43:01.449Z,22.90
2022-08-26T02:46:03.819Z,23.00
2022-08-26T02:49:06.670Z,22.90
2022-08-26T02:52:08.640Z,22.90
2022-08-26T02:55:10.847Z,22.90
2022-08-26T02:58:12.674Z,22.90
2022-08-26T03:01:26.789Z,22.80
2022-08-26T03:04:29.611Z,22.80
2022-08-26T03:07:35.118Z,22.90
2022-08-26T03:10:37.161Z,22.90
2022-08-26T03:13:39.962Z,22.80
2022-08-26T03:16:41.937Z,22.80
2022-08-26T03:19:43.804Z,22.70
2022-08-26T03:22:46.621Z,22.90
2022-08-26T03:25:52.605Z,22.80
2022-08-26T03:29:14.333Z,22.80
2022-08-26T03:32:16.868Z,22.80
2022-08-26T03:35:18.667Z,22.70
2022-08-26T03:38:25.410Z,22.70
2022-08-26T03:41:27.397Z,22.70
2022-08-26T03:44:29.139Z,22.70
2022-08-26T03:47:31.972Z,22.80
2022-08-26T03:50:35.755Z,22.70
2022-08-26T03:53:37.836Z,22.70
2022-08-26T03:56:40.260Z,22.60
2022-08-26T03:59:42.569Z,22.60
2022-08-26T04:02:46.103Z,22.70
2022-08-26T04:05:52.270Z,22.60
2022-08-26T04:08:56.445Z,22.60
2022-08-26T04:11:58.700Z,22.60
2022-08-26T04:15:00.470Z,22.50
2022-08-26T04:18:04.933Z,22.50
2022-08-26T04:21:07.885Z,22.50
2022-08-26T04:24:12.511Z,22.50
2022-08-26T04:27:14.484Z,22.50
2022-08-26T04:30:16.711Z,22.50
2022-08-26T04:33:18.727Z,22.50
2022-08-26T04:36:34.988Z,22.50
2022-08-26T04:39:38.158Z,22.50
2022-08-26T04:42:39.907Z,22.50
2022-08-26T04:45:43.610Z,22.50
2022-08-26T04:48:45.901Z,22.60
2022-08-26T04:51:48.875Z,22.50
2022-08-26T04:54:51.032Z,22.50
2022-08-26T04:57:53.359Z,22.50
2022-08-26T05:00:56.598Z,22.50
2022-08-26T05:03:59.035Z,22.50
2022-08-26T05:07:02.798Z,22.40
2022-08-26T05:10:08.658Z,22.50
2022-08-26T05:13:15.866Z,22.50
2022-08-26T05:16:17.935Z,22.50
2022-08-26T05:19:19.842Z,22.40
2022-08-26T05:22:23.013Z,22.40
2022-08-26T05:25:25.089Z,22.30
2022-08-26T05:28:30.130Z,22.30
2022-08-26T05:31:33.602Z,22.40
2022-08-26T05:34:35.567Z,22.30
2022-08-26T05:37:40.346Z,22.20
2022-08-26T05:40:45.411Z,22.30
2022-08-26T05:43:47.941Z,22.30
2022-08-26T05:46:51.826Z,22.30
2022-08-26T05:49:54.424Z,22.30
2022-08-26T05:52:56.298Z,22.30
2022-08-26T05:55:58.476Z,22.30
2022-08-26T05:59:02.663Z,22.30
2022-08-26T06:02:07.384Z,22.30
2022-08-26T06:05:09.732Z,22.30
2022-08-26T06:08:11.550Z,22.40
2022-08-26T06:11:18.708Z,22.30
2022-08-26T06:14:20.553Z,22.30
2022-08-26T06:17:22.407Z,22.30
2022-08-26T06:20:25.243Z,22.30
2022-08-26T06:23:48.276Z,22.30
2022-08-26T06:26:57.129Z,22.30
2022-08-26T06:29:58.844Z,22.20
2022-08-26T06:33:01.054Z,22.20
2022-08-26T06:36:04.094Z,22.20
2022-08-26T06:39:09.915Z,22.20
2022-08-26T06:42:12.043Z,22.20
2022-08-26T06:45:14.111Z,22.20
2022-08-26T06:48:18.608Z,22.10
2022-08-26T06:51:28.414Z,22.10
2022-08-26T06:54:31.744Z,22.10
2022-08-26T06:57:34.877Z,22.10
2022-08-26T07:00:40.218Z,22.20
2022-08-26T07:03:43.403Z,22.30
2022-08-26T07:06:50.130Z,22.20
2022-08-26T07:09:55.270Z,22.20
2022-08-26T07:12:57.054Z,22.20
2022-08-26T07:16:03.016Z,22.20
2022-08-26T07:19:11.195Z,22.10
2022-08-26T07:22:13.289Z,22.10
2022-08-26T07:25:16.138Z,22.10
2022-08-26T07:28:18.257Z,22.10
2022-08-26T07:31:22.977Z,22.10
2022-08-26T07:34:25.317Z,22.00
2022-08-26T07:37:28.211Z,22.10
2022-08-26T07:40:34.005Z,22.10
2022-08-26T07:43:37.177Z,22.20
2022-08-26T07:46:43.982Z,22.10
2022-08-26T07:49:45.944Z,22.20
2022-08-26T07:52:49.803Z,22.20
2022-08-26T07:55:52.030Z,22.20
2022-08-26T07:58:54.242Z,22.20
2022-08-26T08:01:59.157Z,22.20
2022-08-26T08:05:01.252Z,22.20
2022-08-26T08:08:26.855Z,22.30
2022-08-26T08:11:31.011Z,22.30
2022-08-26T08:14:34.600Z,22.30
2022-08-26T08:17:37.098Z,22.30
2022-08-26T08:20:40.547Z,22.30
2022-08-26T08:23:47.575Z,22.20
2022-08-26T08:26:49.290Z,22.30
2022-08-26T08:29:54.143Z,22.30
2022-08-26T08:32:56.386Z,22.30
2022-08-26T08:36:01.688Z,22.30
2022-08-26T08:39:04.139Z,22.30
2022-08-26T08:42:14.045Z,22.30
2022-08-26T08:45:37.234Z,22.30
2022-08-26T08:48:44.796Z,22.40
2022-08-26T08:52:04.521Z,22.30
2022-08-26T08:55:10.971Z,22.30
2022-08-26T08:58:20.644Z,22.40
2022-08-26T09:01:40.866Z,22.30
2022-08-26T09:05:21.719Z,22.40
2022-08-26T09:08:29.263Z,22.30
2022-08-26T09:11:31.135Z,22.40
2022-08-26T09:14:33.885Z,22.50
2022-08-26T09:17:53.167Z,22.50
2022-08-26T09:21:07.984Z,22.40
2022-08-26T09:24:14.784Z,22.40
2022-08-26T09:27:50.950Z,22.50
2022-08-26T09:31:11.453Z,22.60
2022-08-26T09:34:27.379Z,22.50
2022-08-26T09:40:59.095Z,22.50
2022-08-26T09:44:14.670Z,22.50
2022-08-26T09:47:23.266Z,22.50
2022-08-26T09:50:36.108Z,22.50
2022-08-26T09:53:54.950Z,22.50
2022-08-26T09:57:40.422Z,22.50
2022-08-26T10:00:56.906Z,22.60
2022-08-26T10:04:04.772Z,22.60
2022-08-26T10:07:08.200Z,22.60
2022-08-26T10:10:24.135Z,22.60
2022-08-26T10:13:34.141Z,22.60
2022-08-26T10:16:54.714Z,22.60
2022-08-26T10:20:03.802Z,22.60
2022-08-26T10:23:14.904Z,22.60
2022-08-26T10:26:22.175Z,22.60
2022-08-26T10:29:31.191Z,22.70
2022-08-26T10:32:41.489Z,22.60
2022-08-26T10:35:54.094Z,22.60
2022-08-26T10:39:01.938Z,22.60
2022-08-26T10:42:12.999Z,22.60
2022-08-26T10:45:25.255Z,22.50
2022-08-26T10:48:46.680Z,22.50
2022-08-26T10:52:12.262Z,22.50
2022-08-26T10:56:02.832Z,22.50
2022-08-26T10:59:43.776Z,22.60
2022-08-26T11:02:50.390Z,22.50
2022-08-26T11:06:19.638Z,22.40
2022-08-26T11:09:45.300Z,22.40
2022-08-26T11:13:04.538Z,22.30
2022-08-26T11:16:08.205Z,22.20
2022-08-26T11:19:11.358Z,22.20
2022-08-26T11:22:27.140Z,22.20
2022-08-26T11:25:30.870Z,22.20
2022-08-26T11:28:36.842Z,22.20
2022-08-26T11:31:38.916Z,22.10
2022-08-26T11:34:57.141Z,22.20
2022-08-26T11:38:23.914Z,22.10
2022-08-26T11:41:29.880Z,22.20
2022-08-26T11:44:41.131Z,22.00
2022-08-26T11:47:51.541Z,22.00
2022-08-26T11:50:55.601Z,22.10
2022-08-26T11:54:35.223Z,22.10
2022-08-26T11:57:47.662Z,22.20
2022-08-26T12:00:59.866Z,22.30
2022-08-26T12:04:04.649Z,22.30
2022-08-26T12:07:08.833Z,22.30
2022-08-26T12:10:24.291Z,22.20
2022-08-26T12:13:31.577Z,22.20
2022-08-26T12:16:39.375Z,22.20
2022-08-26T12:19:41.660Z,22.20
2022-08-26T12:22:48.228Z,22.30
2022-08-26T12:25:53.963Z,22.30
2022-08-26T12:28:55.749Z,22.30
2022-08-26T12:32:24.897Z,22.20
2022-08-26T12:35:28.803Z,22.30
2022-08-26T12:38:35.103Z,22.30
2022-08-26T12:41:41.834Z,22.30
2022-08-26T12:45:03.352Z,22.30
2022-08-26T12:48:29.748Z,22.30
2022-08-26T12:51:33.096Z,22.30
2022-08-26T12:54:56.725Z,22.30
2022-08-26T12:58:22.947Z,22.20
2022-08-26T13:01:25.113Z,22.30
2022-08-26T13:04:41.133Z,22.20
2022-08-26T13:07:42.903Z,22.20
2022-08-26T13:10:47.757Z,22.30
2022-08-26T13:13:52.044Z,22.30
2022-08-26T13:16:55.426Z,22.30
2022-08-26T13:20:03.310Z,22.20
2022-08-26T13:23:06.020Z,22.30
2022-08-26T13:26:08.211Z,22.40
2022-08-26T13:29:10.584Z,22.40
2022-08-26T13:32:12.634Z,22.40
2022-08-26T13:35:15.006Z,22.40
2022-08-26T13:38:32.909Z,22.60
2022-08-26T13:41:36.232Z,22.50
2022-08-26T13:44:39.092Z,22.50
2022-08-26T13:47:41.068Z,22.60
2022-08-26T13:50:43.007Z,22.60
2022-08-26T13:53:44.853Z,22.60
2022-08-26T13:56:47.071Z,22.60
2022-08-26T13:59:48.859Z,22.60
2022-08-26T14:02:51.134Z,22.50
2022-08-26T14:05:53.531Z,22.50
2022-08-26T14:08:55.287Z,22.50
2022-08-26T14:11:58.924Z,22.50
2022-08-26T14:15:01.701Z,22.50
2022-08-26T14:18:05.532Z,22.50
2022-08-26T14:21:12.873Z,22.50
2022-08-26T14:24:14.784Z,22.50
2022-08-26T14:27:17.057Z,22.50
2022-08-26T14:30:19.774Z,22.50
2022-08-26T14:33:26.657Z,22.40
2022-08-26T14:36:28.487Z,22.50
2022-08-26T14:39:30.482Z,22.40
2022-08-26T14:42:32.443Z,22.30
2022-08-26T14:45:43.572Z,22.30
2022-08-26T14:48:45.548Z,22.30
2022-08-26T14:51:48.323Z,22.40
2022-08-26T14:54:53.759Z,22.40
2022-08-26T14:57:57.176Z,22.40
2022-08-26T15:00:59.465Z,22.40
2022-08-26T15:04:06.073Z,22.30
2022-08-26T15:07:09.064Z,22.20
2022-08-26T15:10:16.172Z,22.20
2022-08-26T15:13:17.880Z,22.10
2022-08-26T15:16:19.876Z,22.20
2022-08-26T15:19:24.480Z,22.20
2022-08-26T15:22:29.399Z,22.10
2022-08-26T15:25:32.076Z,22.10
2022-08-26T15:28:34.973Z,22.10
2022-08-26T15:31:36.811Z,22.10
2022-08-26T15:34:39.108Z,22.10
2022-08-26T15:37:41.256Z,22.10
2022-08-26T15:40:43.449Z,22.00
2022-08-26T15:43:45.475Z,22.10
2022-08-26T15:46:49.369Z,22.00
2022-08-26T15:49:51.279Z,22.00
2022-08-26T15:52:52.971Z,22.00
2022-08-26T15:55:56.627Z,22.10
2022-08-26T15:59:00.554Z,22.00
2022-08-26T16:02:03.293Z,22.00
2022-08-26T16:05:05.288Z,22.00
2022-08-26T16:08:08.249Z,22.00
2022-08-26T16:11:10.757Z,22.10
2022-08-26T16:14:12.547Z,22.10
2022-08-26T16:17:14.322Z,22.10
2022-08-26T16:20:17.034Z,22.00
2022-08-26T16:23:19.265Z,22.00
2022-08-26T16:26:26.045Z,22.10
2022-08-26T16:29:28.271Z,22.10
2022-08-26T16:32:31.313Z,22.00
2022-08-26T16:35:33.216Z,22.00
2022-08-26T16:38:35.888Z,22.00
2022-08-26T16:41:37.830Z,22.00
2022-08-26T16:44:45.386Z,22.00
2022-08-26T16:47:50.345Z,22.00
2022-08-26T16:50:54.423Z,22.00
2022-08-26T16:54:00.477Z,22.00
2022-08-26T16:57:02.810Z,22.00
2022-08-26T17:00:10.141Z,21.90
2022-08-26T17:03:13.634Z,21.90
2022-08-26T17:06:15.765Z,21.90
2022-08-26T17:09:17.519Z,21.80
2022-08-26T17:12:19.420Z,21.80
2022-08-26T17:15:23.791Z,21.70
2022-08-26T17:18:28.553Z,21.80
2022-08-26T17:21:31.930Z,21.70
2022-08-26T17:24:34.803Z,21.70
2022-08-26T17:27:36.719Z,21.70
2022-08-26T17:30:39.280Z,21.70
2022-08-26T17:33:41.604Z,21.80
2022-08-26T17:36:43.685Z,21.70
2022-08-26T17:39:45.704Z,21.70
2022-08-26T17:42:48.185Z,21.70
2022-08-26T17:45:50.792Z,21.70
2022-08-26T17:48:52.781Z,21.70
2022-08-26T17:51:58.530Z,21.70
2022-08-26T17:55:01.071Z,21.70
2022-08-26T17:58:03.907Z,21.70
2022-08-26T18:01:09.192Z,21.70
2022-08-26T18:04:11.934Z,21.70
2022-08-26T18:07:14.040Z,21.70
2022-08-26T18:10:18.316Z,21.70
2022-08-26T18:13:20.337Z,21.70
2022-08-26T18:16:22.315Z,21.70
2022-08-26T18:19:24.345Z,21.70
2022-08-26T18:22:26.290Z,21.70
2022-08-26T18:25:28.952Z,21.70
2022-08-26T18:28:31.012Z,21.70
2022-08-26T18:31:34.937Z,21.70
2022-08-26T18:34:39.623Z,21.70
2022-08-26T18:37:41.730Z,21.60
2022-08-26T18:40:45.220Z,21.60
2022-08-26T18:43:48.116Z,21.60
2022-08-26T18:46:51.016Z,21.60
2022-08-26T18:49:52.979Z,21.60
2022-08-26T18:52:54.726Z,21.50
2022-08-26T18:55:57.396Z,21.60
2022-08-26T18:58:59.908Z,21.60
2022-08-26T19:02:01.755Z,21.50
2022-08-26T19:05:04.529Z,21.50
2022-08-26T19:08:10.648Z,21.60
2022-08-26T19:11:14.202Z,21.60
2022-08-26T19:14:16.341Z,21.60
2022-08-26T19:17:18.189Z,21.50
2022-08-26T19:20:24.696Z,21.50
2022-08-26T19:23:32.104Z,21.50
2022-08-26T19:26:35.257Z,21.50
2022-08-26T19:29:37.815Z,21.50
2022-08-26T19:32:39.788Z,21.50
2022-08-26T19:35:43.041Z,21.50
2022-08-26T19:38:45.833Z,21.50
2022-08-26T19:41:47.738Z,21.50
2022-08-26T19:45:07.731Z,21.40
2022-08-26T19:48:18.287Z,21.40
2022-08-26T19:51:29.435Z,21.40
2022-08-26T19:54:31.373Z,21.50
2022-08-26T19:57:34.515Z,21.50
2022-08-26T20:00:39.636Z,21.40
2022-08-26T20:03:42.509Z,21.50
2022-08-26T20:06:44.592Z,21.50
2022-08-26T20:09:47.638Z,21.50
2022-08-26T20:12:51.944Z,21.50
2022-08-26T20:15:53.947Z,21.40
2022-08-26T20:19:14.220Z,21.40
2022-08-26T20:22:17.422Z,21.40
2022-08-26T20:25:20.254Z,21.40
2022-08-26T20:28:22.703Z,21.30
2022-08-26T20:31:25.621Z,21.30
2022-08-26T20:34:27.961Z,21.30
2022-08-26T20:37:29.991Z,21.40
2022-08-26T20:40:32.492Z,21.30
2022-08-26T20:43:34.588Z,21.30
2022-08-26T20:46:37.210Z,21.30
2022-08-26T20:49:39.167Z,21.30
2022-08-26T20:52:44.150Z,21.30
2022-08-26T20:55:46.012Z,21.20
2022-08-26T20:58:47.796Z,21.20
2022-08-26T21:01:49.903Z,21.10
2022-08-26T21:04:51.853Z,21.10
2022-08-26T21:07:53.751Z,21.10
2022-08-26T21:10:56.146Z,21.00
2022-08-26T21:14:15.637Z,21.00
2022-08-26T21:17:18.057Z,21.10
2022-08-26T21:20:20.729Z,21.10
2022-08-26T21:23:24.536Z,21.00
2022-08-26T21:26:29.810Z,21.00
2022-08-26T21:29:31.674Z,20.90
2022-08-26T21:32:33.541Z,21.00
2022-08-26T21:35:35.817Z,21.00
2022-08-26T21:38:38.829Z,21.00
2022-08-26T21:41:42.325Z,21.00
2022-08-26T21:44:44.853Z,21.00
2022-08-26T21:47:54.540Z,21.00
2022-08-26T21:50:57.282Z,20.90
2022-08-26T21:54:00.977Z,20.90
2022-08-26T21:57:03.261Z,20.90
2022-08-26T22:00:08.923Z,20.90
2022-08-26T22:03:10.688Z,20.90
2022-08-26T22:06:12.905Z,20.90
2022-08-26T22:09:17.267Z,20.90
2022-08-26T22:12:19.358Z,21.00
2022-08-26T22:15:23.252Z,21.00
2022-08-26T22:18:26.627Z,20.90
2022-08-26T22:21:28.511Z,20.90
2022-08-26T22:24:31.706Z,20.80
2022-08-26T22:27:33.437Z,20.90
2022-08-26T22:30:43.955Z,20.90
2022-08-26T22:33:46.055Z,20.80
2022-08-26T22:36:49.553Z,20.80
2022-08-26T22:39:51.548Z,20.70
2022-08-26T22:42:55.712Z,20.70
2022-08-26T22:46:02.249Z,20.70
2022-08-26T22:49:07.209Z,20.70
2022-08-26T22:52:09.153Z,20.60
2022-08-26T22:55:11.000Z,20.50
2022-08-26T22:58:14.848Z,20.50
2022-08-26T23:01:17.053Z,20.50
2022-08-26T23:04:18.863Z,20.50
2022-08-26T23:07:20.716Z,20.40
2022-08-26T23:10:23.331Z,20.40
2022-08-26T23:13:25.065Z,20.20
2022-08-26T23:16:27.103Z,20.30
2022-08-26T23:19:28.973Z,20.20
2022-08-26T23:22:31.433Z,20.20
2022-08-26T23:25:36.677Z,20.30
2022-08-26T23:28:39.661Z,20.20
2022-08-26T23:31:42.788Z,20.20
2022-08-26T23:34:56.940Z,20.10
2022-08-26T23:38:08.752Z,20.20
2022-08-26T23:41:11.096Z,20.20
2022-08-26T23:44:14.197Z,20.10
2022-08-26T23:47:16.977Z,20.10
2022-08-26T23:50:44.046Z,20.10
2022-08-26T23:53:46.102Z,19.90
2022-08-26T23:56:48.202Z,19.90
2022-08-26T23:59:50.605Z,20.00
